METAR Data
IDs: Format: Raw Decoded Include TAF

Data at: 0201 UTC 01 Mar 2021

SBSM 010100Z 10013KT 9999 SCT020 BKN025 24/21 Q1014